createdAt,value
2019-01-15T00:00:30.777Z,99.90
2019-01-15T00:03:02.446Z,99.90
2019-01-15T00:05:35.117Z,99.90
2019-01-15T00:08:07.198Z,99.90
2019-01-15T00:10:39.615Z,99.90
2019-01-15T00:13:11.531Z,99.90
2019-01-15T00:15:44.325Z,99.90
2019-01-15T00:18:15.970Z,99.90
2019-01-15T00:20:47.629Z,99.90
2019-01-15T00:23:19.297Z,99.90
2019-01-15T00:25:51.081Z,99.90
2019-01-15T00:28:23.032Z,99.90
2019-01-15T00:30:54.703Z,99.90
2019-01-15T00:33:26.505Z,99.90
2019-01-15T00:35:58.611Z,99.90
2019-01-15T00:38:30.297Z,99.90
2019-01-15T00:41:02.016Z,99.90
2019-01-15T00:43:34.329Z,99.90
2019-01-15T00:46:06.266Z,99.90
2019-01-15T00:48:38.544Z,99.90
2019-01-15T00:51:10.288Z,99.90
2019-01-15T00:53:41.787Z,99.90
2019-01-15T00:56:13.672Z,99.90
2019-01-15T00:58:45.518Z,99.90
2019-01-15T01:01:17.195Z,99.90
2019-01-15T01:03:48.986Z,99.90
2019-01-15T01:06:20.632Z,99.90
2019-01-15T01:08:53.141Z,99.90
2019-01-15T01:11:24.987Z,99.90
2019-01-15T01:13:56.951Z,99.90
2019-01-15T01:16:29.133Z,99.90
2019-01-15T01:19:00.877Z,99.90
2019-01-15T01:21:33.383Z,99.90
2019-01-15T01:24:05.614Z,99.90
2019-01-15T01:26:37.255Z,99.90
2019-01-15T01:29:09.102Z,99.90
2019-01-15T01:31:40.893Z,99.90
2019-01-15T01:34:12.511Z,99.90
2019-01-15T01:36:44.064Z,99.90
2019-01-15T01:39:15.895Z,99.90
2019-01-15T01:41:47.782Z,99.90
2019-01-15T01:44:19.454Z,99.90
2019-01-15T01:46:51.133Z,99.90
2019-01-15T01:49:23.039Z,99.90
2019-01-15T01:51:54.575Z,99.90
2019-01-15T01:54:26.376Z,99.90
2019-01-15T01:56:57.925Z,99.90
2019-01-15T01:59:29.686Z,99.90
2019-01-15T02:02:01.548Z,99.90
2019-01-15T02:04:33.416Z,99.90
2019-01-15T02:07:05.419Z,99.90
2019-01-15T02:09:37.242Z,99.90
2019-01-15T02:12:09.031Z,99.90
2019-01-15T02:14:40.827Z,99.90
2019-01-15T02:17:12.773Z,99.90
2019-01-15T02:19:44.405Z,99.90
2019-01-15T02:22:15.991Z,99.20
2019-01-15T02:24:47.850Z,98.00
2019-01-15T02:27:19.727Z,96.70
2019-01-15T02:29:51.469Z,95.80
2019-01-15T02:32:23.204Z,95.50
2019-01-15T02:34:54.987Z,94.80
2019-01-15T02:37:26.555Z,93.90
2019-01-15T02:39:58.112Z,93.40
2019-01-15T02:42:29.757Z,93.60
2019-01-15T02:45:01.427Z,93.10
2019-01-15T02:47:33.140Z,92.80
2019-01-15T02:50:05.597Z,92.70
2019-01-15T02:52:37.370Z,92.90
2019-01-15T02:55:10.372Z,92.50
2019-01-15T02:57:42.359Z,92.70
2019-01-15T03:00:23.305Z,92.40
2019-01-15T03:02:55.137Z,92.40
2019-01-15T03:05:26.878Z,92.70
2019-01-15T03:07:58.562Z,92.70
2019-01-15T03:10:30.141Z,92.70
2019-01-15T03:13:01.681Z,92.70
2019-01-15T03:15:33.220Z,93.00
2019-01-15T03:18:04.973Z,92.80
2019-01-15T03:20:36.481Z,92.80
2019-01-15T03:23:08.065Z,93.00
2019-01-15T03:25:39.868Z,93.30
2019-01-15T03:28:11.406Z,93.50
2019-01-15T03:30:43.116Z,94.00
2019-01-15T03:33:14.624Z,94.30
2019-01-15T03:35:46.635Z,95.10
2019-01-15T03:38:18.037Z,96.90
2019-01-15T03:40:49.553Z,97.90
2019-01-15T03:43:21.278Z,98.70
2019-01-15T03:45:53.056Z,99.40
2019-01-15T03:48:24.738Z,99.90
2019-01-15T03:50:56.380Z,99.90
2019-01-15T03:53:28.010Z,99.90
2019-01-15T03:55:59.828Z,99.90
2019-01-15T03:58:31.437Z,99.90
2019-01-15T04:01:05.720Z,99.90
2019-01-15T04:03:42.178Z,99.90
2019-01-15T04:06:17.819Z,99.90
2019-01-15T04:08:53.691Z,99.90
2019-01-15T04:11:29.768Z,99.90
2019-01-15T04:14:04.359Z,99.90
2019-01-15T04:16:38.719Z,99.90
2019-01-15T04:19:13.271Z,99.90
2019-01-15T04:21:50.473Z,99.90
2019-01-15T04:24:24.666Z,99.90
2019-01-15T04:26:58.266Z,99.90
2019-01-15T04:29:32.457Z,99.90
2019-01-15T04:32:10.680Z,99.90
2019-01-15T04:34:45.158Z,99.90
2019-01-15T04:37:19.628Z,99.90
2019-01-15T04:39:55.269Z,99.90
2019-01-15T04:42:30.987Z,99.90
2019-01-15T04:45:05.846Z,99.90
2019-01-15T04:47:44.660Z,99.90
2019-01-15T04:50:18.368Z,99.90
2019-01-15T04:52:55.691Z,99.90
2019-01-15T04:55:31.301Z,99.90
2019-01-15T04:58:07.775Z,99.90
2019-01-15T05:00:41.799Z,99.90
2019-01-15T05:03:13.957Z,99.90
2019-01-15T05:05:47.379Z,99.90
2019-01-15T05:08:20.245Z,99.90
2019-01-15T05:10:54.545Z,99.90
2019-01-15T05:13:28.910Z,99.90
2019-01-15T05:16:02.830Z,99.90
2019-01-15T05:18:36.436Z,99.90
2019-01-15T05:21:11.812Z,99.90
2019-01-15T05:23:48.856Z,99.90
2019-01-15T05:26:21.923Z,99.90
2019-01-15T05:28:56.631Z,99.90
2019-01-15T05:31:29.681Z,99.90
2019-01-15T05:34:02.659Z,99.90
2019-01-15T05:36:35.645Z,99.90
2019-01-15T05:39:14.360Z,99.90
2019-01-15T05:41:48.537Z,99.90
2019-01-15T05:44:22.745Z,99.90
2019-01-15T05:46:57.446Z,99.90
2019-01-15T05:49:28.990Z,99.90
2019-01-15T05:52:00.450Z,99.90
2019-01-15T05:54:32.355Z,99.90
2019-01-15T05:57:04.151Z,99.90
2019-01-15T05:59:35.788Z,99.90
2019-01-15T06:02:09.447Z,99.90
2019-01-15T06:04:41.192Z,99.90
2019-01-15T06:07:12.831Z,99.90
2019-01-15T06:09:44.437Z,99.90
2019-01-15T06:12:16.154Z,99.90
2019-01-15T06:14:49.009Z,99.90
2019-01-15T06:17:20.663Z,99.90
2019-01-15T06:19:52.220Z,99.90
2019-01-15T06:22:24.130Z,99.90
2019-01-15T06:24:55.561Z,99.90
2019-01-15T06:27:27.161Z,99.90
2019-01-15T06:29:58.977Z,99.90
2019-01-15T06:32:30.669Z,99.90
2019-01-15T06:35:02.324Z,99.90
2019-01-15T06:37:33.931Z,99.90
2019-01-15T06:40:06.959Z,99.90
2019-01-15T06:42:38.751Z,99.90
2019-01-15T06:45:15.785Z,99.90
2019-01-15T06:47:47.493Z,99.90
2019-01-15T06:50:19.588Z,99.90
2019-01-15T06:52:51.418Z,99.90
2019-01-15T06:55:23.584Z,99.90
2019-01-15T06:57:55.518Z,99.90
2019-01-15T07:00:28.851Z,99.90
2019-01-15T07:03:00.928Z,99.90
2019-01-15T07:05:32.825Z,99.90
2019-01-15T07:08:04.597Z,99.90
2019-01-15T07:10:39.533Z,99.90
2019-01-15T07:13:11.599Z,99.90
2019-01-15T07:15:43.819Z,99.90
2019-01-15T07:18:15.719Z,99.90
2019-01-15T07:20:47.579Z,99.90
2019-01-15T07:23:19.485Z,99.90
2019-01-15T07:25:51.757Z,99.90
2019-01-15T07:28:24.218Z,99.90
2019-01-15T07:31:03.381Z,99.90
2019-01-15T07:33:35.379Z,99.90
2019-01-15T07:36:07.023Z,99.90
2019-01-15T07:38:38.710Z,99.90
2019-01-15T07:41:10.940Z,99.90
2019-01-15T07:43:42.623Z,99.90
2019-01-15T07:46:15.033Z,99.90
2019-01-15T07:48:46.725Z,99.90
2019-01-15T07:51:18.463Z,99.90
2019-01-15T07:53:50.922Z,99.90
2019-01-15T07:56:23.080Z,99.90
2019-01-15T07:58:55.199Z,99.90
2019-01-15T08:01:27.042Z,99.90
2019-01-15T08:03:58.921Z,99.90
2019-01-15T08:06:30.859Z,99.90
2019-01-15T08:09:02.827Z,99.90
2019-01-15T08:11:34.818Z,99.90
2019-01-15T08:14:12.022Z,99.90
2019-01-15T08:16:41.082Z,99.90
2019-01-15T08:19:12.969Z,99.90
2019-01-15T08:21:44.763Z,99.60
2019-01-15T08:24:16.655Z,98.50
2019-01-15T08:26:49.034Z,97.50
2019-01-15T08:29:20.832Z,97.40
2019-01-15T08:31:53.347Z,96.90
2019-01-15T08:34:25.766Z,96.40
2019-01-15T08:36:57.784Z,95.30
2019-01-15T08:39:31.830Z,94.70
2019-01-15T08:42:03.800Z,94.70
2019-01-15T08:44:35.842Z,93.90
2019-01-15T08:47:07.706Z,92.70
2019-01-15T08:49:39.401Z,93.10
2019-01-15T08:52:11.275Z,92.90
2019-01-15T08:54:43.599Z,93.00
2019-01-15T08:57:15.847Z,92.60
2019-01-15T08:59:48.191Z,91.70
2019-01-15T09:02:20.311Z,87.00
2019-01-15T09:04:52.200Z,86.50
2019-01-15T09:07:23.787Z,84.80
2019-01-15T09:09:55.721Z,84.50
2019-01-15T09:12:28.233Z,82.70
2019-01-15T09:14:59.889Z,83.00
2019-01-15T09:17:32.271Z,84.10
2019-01-15T09:20:04.924Z,82.80
2019-01-15T09:22:36.631Z,84.10
2019-01-15T09:25:08.906Z,82.40
2019-01-15T09:27:41.062Z,81.70
2019-01-15T09:30:17.239Z,83.00
2019-01-15T09:32:49.969Z,81.90
2019-01-15T09:35:22.103Z,80.90
2019-01-15T09:37:53.880Z,81.20
2019-01-15T09:40:26.440Z,78.90
2019-01-15T09:42:58.730Z,79.20
2019-01-15T09:45:30.376Z,77.40
2019-01-15T09:48:06.489Z,75.70
2019-01-15T09:50:38.371Z,74.00
2019-01-15T09:53:10.796Z,72.00
2019-01-15T09:55:42.653Z,71.40
2019-01-15T09:58:14.433Z,71.10
2019-01-15T10:00:47.204Z,68.00
2019-01-15T10:03:19.176Z,66.30
2019-01-15T10:05:51.519Z,65.40
2019-01-15T10:08:23.129Z,65.10
2019-01-15T10:10:55.201Z,65.20
2019-01-15T10:13:27.058Z,65.90
2019-01-15T10:15:59.339Z,66.10
2019-01-15T10:18:31.205Z,64.80
2019-01-15T10:21:03.091Z,64.00
2019-01-15T10:23:34.755Z,64.50
2019-01-15T10:26:06.460Z,64.00
2019-01-15T10:28:38.409Z,63.20
2019-01-15T10:32:25.836Z,60.60
2019-01-15T10:34:58.563Z,62.10
2019-01-15T10:37:30.971Z,60.90
2019-01-15T10:40:04.714Z,61.90
2019-01-15T10:42:36.745Z,60.90
2019-01-15T10:45:11.422Z,58.40
2019-01-15T10:47:43.344Z,57.70
2019-01-15T10:50:16.155Z,56.40
2019-01-15T10:52:48.574Z,53.30
2019-01-15T10:55:20.845Z,51.60
2019-01-15T10:57:53.443Z,48.70
2019-01-15T11:00:26.386Z,47.60
2019-01-15T11:02:58.072Z,47.60
2019-01-15T11:05:30.720Z,46.60
2019-01-15T11:08:03.331Z,46.40
2019-01-15T11:10:35.569Z,45.50
2019-01-15T11:13:08.630Z,45.20
2019-01-15T11:15:43.424Z,45.50
2019-01-15T11:18:20.764Z,45.80
2019-01-15T11:20:54.868Z,44.80
2019-01-15T11:23:26.947Z,43.80
2019-01-15T11:26:00.778Z,42.50
2019-01-15T11:28:35.870Z,42.80
2019-01-15T11:31:07.691Z,42.00
2019-01-15T11:33:40.069Z,42.40
2019-01-15T11:36:11.940Z,42.50
2019-01-15T11:38:43.770Z,42.10
2019-01-15T11:41:17.349Z,42.20
2019-01-15T11:43:49.114Z,41.30
2019-01-15T11:46:21.468Z,40.20
2019-01-15T11:48:53.261Z,39.40
2019-01-15T11:51:27.671Z,38.50
2019-01-15T11:54:00.438Z,37.90
2019-01-15T11:56:32.064Z,37.90
2019-01-15T11:59:04.740Z,38.10
2019-01-15T12:01:59.221Z,38.30
2019-01-15T12:04:55.746Z,38.00
2019-01-15T12:07:53.110Z,36.70
2019-01-15T12:10:43.878Z,37.00
2019-01-15T12:13:33.182Z,36.90
2019-01-15T12:16:23.874Z,36.10
2019-01-15T12:19:04.451Z,35.40
2019-01-15T12:22:01.702Z,36.20
2019-01-15T12:24:53.190Z,34.20
2019-01-15T12:27:45.547Z,33.70
2019-01-15T12:30:30.387Z,32.50
2019-01-15T12:33:21.106Z,32.70
2019-01-15T12:36:24.257Z,32.90
2019-01-15T12:39:14.979Z,33.20
2019-01-15T12:41:59.139Z,33.20
2019-01-15T12:44:49.599Z,33.30
2019-01-15T12:47:46.547Z,33.40
2019-01-15T12:50:37.136Z,33.60
2019-01-15T12:53:46.017Z,33.60
2019-01-15T12:56:35.491Z,33.40
2019-01-15T12:59:32.753Z,32.90
2019-01-15T13:02:38.577Z,33.20
2019-01-15T13:05:29.427Z,33.00
2019-01-15T13:08:26.005Z,33.00
2019-01-15T13:11:19.449Z,33.20
2019-01-15T13:14:22.157Z,33.60
2019-01-15T13:17:31.031Z,33.00
2019-01-15T13:20:20.206Z,32.80
2019-01-15T13:23:10.647Z,33.10
2019-01-15T13:25:51.953Z,33.10
2019-01-15T13:28:42.673Z,33.90
2019-01-15T13:31:26.404Z,33.00
2019-01-15T13:34:15.870Z,33.90
2019-01-15T13:37:09.503Z,33.90
2019-01-15T13:40:03.820Z,34.30
2019-01-15T13:42:54.398Z,33.90
2019-01-15T13:45:51.147Z,34.10
2019-01-15T13:48:43.863Z,34.40
2019-01-15T13:51:46.667Z,34.00
2019-01-15T13:54:37.157Z,34.60
2019-01-15T13:57:28.770Z,33.30
2019-01-15T14:00:17.996Z,33.80
2019-01-15T14:03:08.006Z,34.20
2019-01-15T14:06:17.508Z,33.40
2019-01-15T14:09:20.293Z,32.70
2019-01-15T14:12:09.864Z,32.70
2019-01-15T14:14:59.999Z,32.20
2019-01-15T14:17:49.322Z,31.90
2019-01-15T14:20:38.988Z,32.50
2019-01-15T14:23:29.386Z,32.60
2019-01-15T14:26:26.639Z,33.70
2019-01-15T14:29:16.496Z,32.90
2019-01-15T14:32:06.070Z,33.10
2019-01-15T14:34:49.028Z,32.60
2019-01-15T14:37:46.330Z,32.60
2019-01-15T14:40:42.421Z,32.70
2019-01-15T14:43:36.227Z,33.00
2019-01-15T14:46:26.900Z,32.90
2019-01-15T14:49:17.536Z,33.60
2019-01-15T14:52:11.800Z,32.50
2019-01-15T14:55:20.899Z,32.60
2019-01-15T14:58:10.444Z,33.10
2019-01-15T15:01:07.760Z,33.10
2019-01-15T15:04:04.554Z,32.90
2019-01-15T15:06:54.213Z,33.10
2019-01-15T15:09:38.487Z,33.00
2019-01-15T15:12:19.822Z,32.50
2019-01-15T15:15:07.320Z,33.30
2019-01-15T15:17:59.305Z,33.50
2019-01-15T15:20:56.008Z,33.90
2019-01-15T15:23:46.657Z,34.60
2019-01-15T15:26:32.197Z,35.70
2019-01-15T15:29:36.092Z,36.30
2019-01-15T15:32:25.480Z,36.00
2019-01-15T15:35:21.873Z,36.30
2019-01-15T15:38:21.319Z,38.20
2019-01-15T15:41:17.149Z,40.10
2019-01-15T15:43:56.232Z,43.20
2019-01-15T15:46:53.982Z,45.60
2019-01-15T15:49:50.922Z,45.70
2019-01-15T15:52:47.541Z,46.50
2019-01-15T15:55:37.712Z,48.20
2019-01-15T15:58:18.837Z,49.60
2019-01-15T16:01:08.489Z,49.50
2019-01-15T16:03:54.114Z,49.40
2019-01-15T16:06:45.777Z,50.30
2019-01-15T16:09:35.434Z,51.50
2019-01-15T16:12:35.791Z,51.80
2019-01-15T16:15:35.582Z,52.90
2019-01-15T16:18:32.090Z,53.20
2019-01-15T16:21:26.669Z,53.70
2019-01-15T16:24:34.343Z,54.10
2019-01-15T16:27:24.871Z,54.00
2019-01-15T16:30:14.399Z,55.50
2019-01-15T16:33:07.979Z,57.20
2019-01-15T16:36:05.743Z,57.70
2019-01-15T16:39:17.696Z,57.60
2019-01-15T16:42:11.179Z,58.00
2019-01-15T16:45:00.617Z,59.20
2019-01-15T16:47:57.251Z,59.80
2019-01-15T16:50:47.852Z,60.30
2019-01-15T16:53:41.698Z,60.80
2019-01-15T16:56:32.617Z,61.50
2019-01-15T16:59:24.145Z,61.70
2019-01-15T17:02:28.035Z,62.50
2019-01-15T17:05:18.839Z,63.00
2019-01-15T17:08:09.807Z,64.50
2019-01-15T17:11:19.141Z,64.80
2019-01-15T17:14:04.621Z,65.60
2019-01-15T17:16:55.089Z,67.00
2019-01-15T17:19:55.747Z,67.20
2019-01-15T17:22:52.967Z,67.00
2019-01-15T17:25:42.436Z,67.80
2019-01-15T17:28:24.788Z,68.30
2019-01-15T17:31:15.963Z,69.20
2019-01-15T17:34:18.669Z,71.50
2019-01-15T17:37:12.208Z,72.80
2019-01-15T17:40:05.965Z,74.20
2019-01-15T17:42:56.123Z,76.40
2019-01-15T17:45:47.154Z,76.90
2019-01-15T17:48:36.492Z,76.30
2019-01-15T17:51:35.680Z,76.30
2019-01-15T17:54:26.489Z,75.90
2019-01-15T17:57:16.787Z,76.00
2019-01-15T18:00:22.490Z,75.40
2019-01-15T18:03:14.958Z,74.70
2019-01-15T18:06:04.853Z,76.00
2019-01-15T18:08:51.548Z,76.60
2019-01-15T18:11:45.199Z,78.70
2019-01-15T18:14:29.649Z,80.60
2019-01-15T18:17:23.507Z,82.00
2019-01-15T18:20:12.365Z,84.90
2019-01-15T18:23:01.864Z,84.50
2019-01-15T18:25:59.277Z,83.50
2019-01-15T18:28:58.906Z,84.70
2019-01-15T18:31:45.572Z,84.10
2019-01-15T18:34:40.392Z,85.00
2019-01-15T18:37:31.487Z,85.10
2019-01-15T18:40:21.070Z,86.00
2019-01-15T18:43:19.959Z,86.10
2019-01-15T18:46:23.652Z,85.30
2019-01-15T18:49:23.606Z,85.60
2019-01-15T18:52:33.636Z,87.80
2019-01-15T18:55:27.525Z,89.60
2019-01-15T18:58:18.636Z,90.30
2019-01-15T19:01:12.300Z,90.80
2019-01-15T19:04:12.714Z,91.70
2019-01-15T19:07:09.324Z,92.30
2019-01-15T19:09:59.609Z,93.00
2019-01-15T19:12:50.503Z,93.70
2019-01-15T19:15:43.295Z,93.20
2019-01-15T19:18:50.641Z,92.90
2019-01-15T19:21:44.834Z,92.50
2019-01-15T19:24:34.226Z,93.40
2019-01-15T19:27:35.619Z,93.50
2019-01-15T19:30:32.892Z,94.00
2019-01-15T19:33:22.207Z,94.50
2019-01-15T19:36:22.476Z,95.30
2019-01-15T19:39:15.791Z,95.60
2019-01-15T19:42:09.662Z,97.20
2019-01-15T19:45:04.139Z,97.80
2019-01-15T19:47:53.711Z,98.50
2019-01-15T19:50:56.766Z,99.10
2019-01-15T19:53:58.637Z,99.70
2019-01-15T19:56:51.066Z,99.90
2019-01-15T19:59:48.000Z,99.90
2019-01-15T20:02:38.782Z,99.90
2019-01-15T20:05:27.753Z,99.90
2019-01-15T20:08:18.975Z,99.90
2019-01-15T20:11:14.972Z,99.90
2019-01-15T20:13:59.536Z,99.90
2019-01-15T20:16:55.859Z,99.90
2019-01-15T20:19:40.362Z,99.90
2019-01-15T20:22:33.143Z,99.90
2019-01-15T20:25:25.063Z,99.90
2019-01-15T20:28:25.166Z,99.90
2019-01-15T20:31:24.866Z,99.90
2019-01-15T20:34:18.863Z,99.90
2019-01-15T20:37:19.218Z,99.90
2019-01-15T20:40:18.865Z,99.90
2019-01-15T20:43:25.008Z,99.90
2019-01-15T20:46:14.353Z,99.90
2019-01-15T20:49:04.745Z,99.90
2019-01-15T20:51:58.333Z,99.90
2019-01-15T20:54:37.439Z,99.90
2019-01-15T20:57:28.383Z,99.90
2019-01-15T21:00:25.520Z,99.90
2019-01-15T21:03:29.395Z,99.90
2019-01-15T21:06:18.656Z,99.90
2019-01-15T21:09:12.193Z,99.90
2019-01-15T21:12:02.244Z,99.90
2019-01-15T21:14:54.473Z,99.90
2019-01-15T21:17:49.442Z,99.90
2019-01-15T21:20:40.925Z,99.90
2019-01-15T21:23:30.825Z,99.90
2019-01-15T21:26:18.933Z,99.90
2019-01-15T21:29:09.675Z,99.90
2019-01-15T21:32:06.589Z,99.90
2019-01-15T21:35:05.649Z,99.90
2019-01-15T21:37:55.867Z,99.90
2019-01-15T21:40:49.611Z,99.90
2019-01-15T21:43:40.004Z,99.90
2019-01-15T21:46:34.064Z,99.90
2019-01-15T21:49:30.854Z,99.90
2019-01-15T21:52:16.502Z,99.90
2019-01-15T21:55:06.143Z,99.90
2019-01-15T21:58:05.583Z,99.90
2019-01-15T22:00:54.802Z,99.90
2019-01-15T22:03:46.655Z,99.90
2019-01-15T22:06:32.002Z,99.90
2019-01-15T22:09:34.254Z,99.90
2019-01-15T22:12:24.847Z,99.90
2019-01-15T22:15:15.335Z,99.90
2019-01-15T22:18:24.365Z,99.90
2019-01-15T22:21:17.712Z,99.90
2019-01-15T22:24:10.760Z,99.90
2019-01-15T22:26:56.238Z,99.90
2019-01-15T22:29:52.051Z,99.90
2019-01-15T22:32:52.287Z,99.90
2019-01-15T22:35:47.438Z,99.90
2019-01-15T22:38:50.035Z,99.90
2019-01-15T22:41:55.900Z,99.90
2019-01-15T22:44:42.675Z,99.90
2019-01-15T22:47:32.038Z,99.90
2019-01-15T22:50:21.689Z,99.90
2019-01-15T22:53:02.283Z,99.90
2019-01-15T22:55:48.765Z,99.90
2019-01-15T22:58:40.001Z,99.90
2019-01-15T23:01:32.296Z,99.90
2019-01-15T23:04:41.010Z,99.90
2019-01-15T23:07:30.669Z,99.90
2019-01-15T23:10:32.998Z,99.90
2019-01-15T23:13:35.795Z,99.90
2019-01-15T23:16:25.090Z,99.90
2019-01-15T23:19:21.703Z,99.90
2019-01-15T23:22:04.221Z,99.90
2019-01-15T23:25:10.383Z,99.90
2019-01-15T23:27:49.592Z,99.90
2019-01-15T23:30:43.358Z,99.90
2019-01-15T23:33:40.234Z,99.90
2019-01-15T23:36:27.620Z,99.90
2019-01-15T23:39:30.305Z,99.90
2019-01-15T23:42:29.687Z,99.90
2019-01-15T23:45:19.254Z,99.90
2019-01-15T23:48:09.851Z,99.90
2019-01-15T23:50:53.803Z,99.90
2019-01-15T23:53:51.033Z,99.90
2019-01-15T23:56:42.768Z,99.90
2019-01-15T23:59:39.062Z,99.90
